Time;durP1;ratioP1;P1;durP2;ratioP2;P2;SDS_P1;SDS_P2;PMS_P1;PMS_P2;Temp;Humidity;BMP_temperature;BMP_pressure;BME280_temperature;BME280_humidity;BME280_pressure;Samples;Min_cycle;Max_cycle;Signal;HPM_P1;HPM_P2
2023/06/04 00:04:27;;;;;;;52.63;26.20;;;;;;;14.72;100.00;97787.38;10324258;28;20136;-52
2023/06/04 00:09:27;;;;;;;57.65;27.00;;;;;;;14.99;100.00;97861.81;10324959;28;20129;-52
2023/06/04 00:14:27;;;;;;;39.75;21.02;;;;;;;14.83;100.00;97861.19;10322599;28;20469;-52
2023/06/04 00:19:27;;;;;;;36.63;21.00;;;;;;;14.60;100.00;97856.31;10324540;28;20061;-53
2023/06/04 00:24:26;;;;;;;40.55;21.02;;;;;;;14.60;100.00;97861.53;10324195;28;20076;-52
2023/06/04 00:29:27;;;;;;;38.08;22.48;;;;;;;14.64;100.00;97859.75;10323438;28;20035;-52
2023/06/04 00:34:26;;;;;;;36.97;21.83;;;;;;;14.69;100.00;97855.31;10323939;28;20068;-52
2023/06/04 00:39:25;;;;;;;41.42;22.45;;;;;;;14.87;100.00;97858.53;10324166;28;20049;-53
2023/06/04 00:44:25;;;;;;;39.72;21.95;;;;;;;14.96;100.00;97858.38;10331290;28;20045;-53
2023/06/04 00:49:24;;;;;;;35.95;20.08;;;;;;;15.00;100.00;97854.81;10331839;28;20081;-52
2023/06/04 00:54:24;;;;;;;39.72;21.33;;;;;;;14.85;100.00;97827.22;10332580;28;20073;-53
2023/06/04 00:59:23;;;;;;;41.67;22.35;;;;;;;15.09;100.00;97854.66;10331740;28;20119;-52
2023/06/04 01:04:40;;;;;;;40.38;21.98;;;;;;;15.18;100.00;97853.66;10332097;28;20100;-52
2023/06/04 01:09:39;;;;;;;39.75;21.58;;;;;;;15.26;100.00;97859.59;10331038;28;20100;-52
2023/06/04 01:14:38;;;;;;;44.30;22.15;;;;;;;15.27;100.00;97852.59;10330974;28;20177;-52
2023/06/04 01:20:05;;;;;;;40.78;22.10;;;;;;;15.29;100.00;97858.66;10330884;28;20033;-52
2023/06/04 01:25:21;;;;;;;45.95;23.42;;;;;;;15.34;100.00;97865.56;10329826;28;20061;-52
2023/06/04 01:30:29;;;;;;;51.50;25.27;;;;;;;15.35;100.00;97867.28;10330569;28;20116;-52
2023/06/04 01:35:31;;;;;;;53.13;25.17;;;;;;;15.38;100.00;97871.56;10330724;28;20080;-50
2023/06/04 01:40:30;;;;;;;44.50;22.25;;;;;;;15.36;100.00;97857.66;10330838;28;20113;-52
2023/06/04 01:45:29;;;;;;;39.67;21.05;;;;;;;15.31;100.00;97870.81;10329018;28;20060;-52
2023/06/04 01:50:28;;;;;;;32.78;18.45;;;;;;;15.25;100.00;97870.94;10329033;28;20457;-52
2023/06/04 01:55:29;;;;;;;35.78;20.25;;;;;;;15.21;100.00;97879.72;10328282;28;20467;-52
2023/06/04 02:00:29;;;;;;;45.67;22.27;;;;;;;15.08;100.00;97842.47;10329092;28;20546;-52
2023/06/04 02:05:28;;;;;;;40.20;21.75;;;;;;;15.28;100.00;97888.34;10328932;28;20083;-52
2023/06/04 02:10:27;;;;;;;42.75;21.42;;;;;;;15.29;100.00;97887.44;10329575;28;20384;-51
2023/06/04 02:15:27;;;;;;;45.42;22.30;;;;;;;15.34;100.00;97882.97;10328382;28;20112;-52
2023/06/04 02:20:27;;;;;;;45.70;22.90;;;;;;;15.30;100.00;97887.41;10328575;28;20116;-52
2023/06/04 02:25:25;;;;;;;44.75;23.25;;;;;;;15.11;100.00;97889.50;10328761;28;20583;-52
2023/06/04 02:30:24;;;;;;;55.72;23.05;;;;;;;14.92;100.00;97888.03;10328946;28;20048;-52
2023/06/04 02:35:24;;;;;;;;;;;;;;;14.82;100.00;97901.25;10329051;28;20263;-51
2023/06/04 02:40:26;;;;;;;43.60;22.20;;;;;;;14.73;100.00;97890.97;10327510;28;20475;-52
2023/06/04 02:45:25;;;;;;;43.38;20.67;;;;;;;14.84;100.00;97901.25;10326551;28;20116;-52
2023/06/04 02:50:24;;;;;;;42.03;21.77;;;;;;;14.82;100.00;97903.00;10326626;28;20120;-52
2023/06/04 02:55:23;;;;;;;43.20;22.02;;;;;;;14.84;100.00;97911.69;10327207;28;20084;-52
2023/06/04 03:00:22;;;;;;;42.95;22.15;;;;;;;14.97;100.00;97912.38;10327119;28;20029;-52
2023/06/04 03:05:23;;;;;;;36.92;20.83;;;;;;;15.09;100.00;97922.63;10327001;28;20073;-52
2023/06/04 03:10:22;;;;;;;35.67;18.90;;;;;;;15.14;100.00;97919.94;10327067;28;20132;-52
2023/06/04 03:15:21;;;;;;;33.05;19.17;;;;;;;14.97;100.00;97923.69;10326070;28;20068;-52
2023/06/04 03:20:24;;;;;;;37.25;20.15;;;;;;;14.97;100.00;97923.69;10326006;28;20025;-50
2023/06/04 03:25:22;;;;;;;40.10;22.33;;;;;;;14.99;100.00;97937.59;10327106;28;20065;-52
2023/06/04 03:30:21;;;;;;;44.42;23.25;;;;;;;15.01;100.00;97941.06;10325345;28;20041;-52
2023/06/04 03:35:20;;;;;;;;;;;;;;;15.01;100.00;97942.78;10325994;28;20025;-53
2023/06/04 03:40:19;;;;;;;44.93;24.47;;;;;;;15.04;100.00;97953.19;10326085;28;19963;-52
2023/06/04 03:45:18;;;;;;;46.78;24.83;;;;;;;15.02;100.00;97954.97;10325547;28;20556;-52
2023/06/04 03:50:18;;;;;;;51.63;25.95;;;;;;;15.06;100.00;97938.38;10325040;28;20560;-52
2023/06/04 03:55:17;;;;;;;41.63;21.77;;;;;;;15.12;100.00;97953.94;10325772;28;20125;-52
2023/06/04 04:00:16;;;;;;;43.30;21.83;;;;;;;14.95;100.00;97920.22;10324935;28;20120;-51
2023/06/04 04:05:17;;;;;;;37.88;20.63;;;;;;;15.27;100.00;97954.56;10324974;28;20511;-52
2023/06/04 04:10:16;;;;;;;41.88;21.60;;;;;;;15.46;100.00;97958.63;10325326;28;20488;-53
2023/06/04 04:15:14;;;;;;;37.20;20.48;;;;;;;15.60;100.00;97961.84;10323603;28;20496;-53
2023/06/04 04:20:13;;;;;;;35.97;20.13;;;;;;;15.61;100.00;97947.00;10325082;28;20038;-53
2023/06/04 04:25:12;;;;;;;;;;;;;;;15.75;100.00;97968.53;10324079;28;20033;-52
2023/06/04 04:30:13;;;;;;;31.00;18.03;;;;;;;15.54;100.00;97969.78;10323723;28;19924;-53
2023/06/04 04:35:12;;;;;;;33.33;18.88;;;;;;;15.52;100.00;97979.41;10324092;28;20075;-52
2023/06/04 04:40:12;;;;;;;36.67;20.23;;;;;;;15.48;100.00;97988.19;10325384;28;20045;-53
2023/06/04 04:45:11;;;;;;;36.30;19.88;;;;;;;15.49;100.00;97983.84;10327721;28;20084;-52
2023/06/04 04:50:10;;;;;;;31.98;18.50;;;;;;;15.62;100.00;97983.63;10326265;28;20073;-53
2023/06/04 04:55:09;;;;;;;29.95;17.88;;;;;;;15.72;100.00;97978.22;10327601;28;20095;-53
2023/06/04 05:00:09;;;;;;;32.08;18.83;;;;;;;15.77;100.00;97960.69;10326829;28;20496;-53
2023/06/04 05:05:10;;;;;;;27.23;18.85;;;;;;;16.14;100.00;97983.53;10326857;28;20072;-53
2023/06/04 05:10:09;;;;;;;31.80;18.98;;;;;;;16.33;100.00;97990.16;10326252;28;20529;-53
2023/06/04 05:15:12;;;;;;;29.08;18.48;;;;;;;16.52;100.00;97990.63;10327008;28;20065;-52
2023/06/04 05:20:11;;;;;;;28.08;17.90;;;;;;;16.59;100.00;97988.75;10326584;28;20069;-52
2023/06/04 05:25:10;;;;;;;25.40;15.90;;;;;;;16.65;100.00;97985.97;10326363;28;20557;-51
2023/06/04 05:30:11;;;;;;;24.30;16.02;;;;;;;16.57;100.00;97999.25;10332894;28;20154;-52
2023/06/04 05:35:10;;;;;;;26.45;16.63;;;;;;;16.37;100.00;98007.53;10332826;28;20077;-52
2023/06/04 05:40:09;;;;;;;23.98;15.13;;;;;;;16.36;100.00;98007.56;10331272;28;20064;-52
2023/06/04 05:45:09;;;;;;;22.23;14.88;;;;;;;16.21;100.00;98013.97;10329968;28;20520;-53
2023/06/04 05:50:09;;;;;;;19.65;12.50;;;;;;;16.18;100.00;98016.63;10327724;28;20083;-52
2023/06/04 05:55:08;;;;;;;16.85;12.50;;;;;;;16.35;100.00;98019.81;10330340;28;20065;-52
2023/06/04 06:00:10;;;;;;;13.90;10.00;;;;;;;16.48;100.00;98018.63;10329873;28;20072;-52
2023/06/04 06:05:09;;;;;;;14.68;10.30;;;;;;;16.55;100.00;98042.97;10315342;28;20116;-52
2023/06/04 06:10:08;;;;;;;15.95;8.30;;;;;;;16.06;100.00;98050.00;10327951;28;20044;-52
2023/06/04 06:15:08;;;;;;;21.17;11.70;;;;;;;15.41;100.00;98054.56;10329637;28;21367;-50
2023/06/04 06:20:08;;;;;;;21.02;12.93;;;;;;;14.39;100.00;97959.31;10327080;28;20132;-51
2023/06/04 06:25:07;;;;;;;24.40;12.80;;;;;;;14.80;100.00;98059.81;10327899;28;20065;-53
2023/06/04 06:30:08;;;;;;;22.50;13.05;;;;;;;14.50;100.00;98067.97;10328478;28;20116;-53
2023/06/04 06:35:07;;;;;;;26.02;13.85;;;;;;;14.35;100.00;98069.88;10328949;28;20151;-53
2023/06/04 06:40:07;;;;;;;21.05;12.60;;;;;;;14.28;100.00;98069.97;10324170;28;20125;-53
2023/06/04 06:45:06;;;;;;;20.42;12.32;;;;;;;14.24;100.00;98082.19;10322497;28;20473;-53
2023/06/04 06:50:06;;;;;;;20.98;11.38;;;;;;;14.16;100.00;98077.03;10327561;28;20137;-53
2023/06/04 06:55:05;;;;;;;20.10;11.23;;;;;;;14.09;100.00;98085.81;10327263;28;20493;-53
2023/06/04 07:00:05;;;;;;;16.02;11.10;;;;;;;14.13;100.00;98089.25;10327507;28;20068;-53
2023/06/04 07:05:05;;;;;;;24.02;13.98;;;;;;;14.24;100.00;98078.69;10326732;28;20079;-53
2023/06/04 07:10:04;;;;;;;29.70;19.38;;;;;;;14.38;100.00;98084.63;10324146;28;20080;-53
2023/06/04 07:15:04;;;;;;;22.50;14.13;;;;;;;14.12;100.00;98019.66;10326672;28;20077;-56
2023/06/04 07:20:06;;;;;;;12.77;7.57;;;;;;;14.57;100.00;98098.38;10326832;28;20080;-53
2023/06/04 07:25:06;;;;;;;12.73;6.90;;;;;;;14.71;100.00;98098.22;10325871;28;20076;-53
2023/06/04 07:30:07;;;;;;;8.90;6.07;;;;;;;14.98;100.00;98105.72;10327157;28;20212;-53
2023/06/04 07:35:07;;;;;;;9.52;6.82;;;;;;;14.81;100.00;98116.38;10325982;28;20069;-54
2023/06/04 07:40:06;;;;;;;8.98;5.78;;;;;;;14.77;100.00;98129.50;10325327;28;20073;-53
2023/06/04 07:45:06;;;;;;;7.35;5.60;;;;;;;14.93;100.00;98135.41;10326178;28;20075;-53
2023/06/04 07:50:06;;;;;;;9.85;5.55;;;;;;;14.46;100.00;98122.00;10324678;28;20069;-53
2023/06/04 07:55:05;;;;;;;9.23;6.30;;;;;;;14.52;100.00;98141.94;10325137;28;20446;-53
2023/06/04 08:00:07;;;;;;;14.25;7.13;;;;;;;14.72;100.00;98160.91;10324963;28;20069;-53
2023/06/04 08:05:06;;;;;;;10.10;6.10;;;;;;;14.96;100.00;98158.88;10325754;28;20489;-53
2023/06/04 08:10:06;;;;;;;9.35;5.57;;;;;;;15.07;100.00;98164.00;10324091;28;20077;-52
2023/06/04 08:15:05;;;;;;;8.38;5.85;;;;;;;15.04;100.00;98162.28;10325378;28;20500;-53
2023/06/04 08:20:11;;;;;;;10.07;5.50;;;;;;;14.84;100.00;98178.19;10321702;28;20068;-53
2023/06/04 08:25:10;;;;;;;10.93;6.18;;;;;;;14.58;100.00;98178.44;10324606;28;20085;-54
2023/06/04 08:30:09;;;;;;;7.68;5.50;;;;;;;14.28;100.00;98135.22;10324005;28;20029;-53
2023/06/04 08:35:08;;;;;;;14.38;7.35;;;;;;;14.22;100.00;98187.47;10323855;28;20120;-54
2023/06/04 08:40:09;;;;;;;9.13;6.05;;;;;;;14.46;100.00;98182.03;10324012;28;20069;-53
2023/06/04 08:45:13;;;;;;;11.07;6.22;;;;;;;14.39;100.00;98186.44;10323574;28;20065;-54
2023/06/04 08:50:13;;;;;;;10.70;6.65;;;;;;;14.45;100.00;98192.50;10324328;28;20077;-53
2023/06/04 08:55:14;;;;;;;10.23;6.25;;;;;;;14.35;100.00;98183.88;10323249;28;20128;-53
2023/06/04 09:00:13;;;;;;;9.55;6.50;;;;;;;14.49;100.00;98222.94;10320877;28;20241;-53
2023/06/04 09:05:20;;;;;;;10.70;7.68;;;;;;;14.41;100.00;98217.78;10329950;28;20102;-53
2023/06/04 09:10:22;;;;;;;13.55;8.57;;;;;;;14.31;100.00;98223.94;10329791;28;20508;-53
2023/06/04 09:15:21;;;;;;;13.07;9.02;;;;;;;14.24;100.00;98230.09;10330541;28;20065;-53
2023/06/04 09:20:22;;;;;;;15.05;9.68;;;;;;;14.41;100.00;98241.28;10330874;28;20033;-54
2023/06/04 09:25:24;;;;;;;16.52;8.90;;;;;;;14.46;100.00;98223.81;10331052;28;20464;-52
2023/06/04 09:30:23;;;;;;;13.60;8.75;;;;;;;14.71;100.00;98245.41;10329921;28;20084;-54
2023/06/04 09:35:22;;;;;;;12.25;6.80;;;;;;;14.91;100.00;98239.94;10330308;28;20061;-53
2023/06/04 09:40:22;;;;;;;13.45;7.47;;;;;;;15.03;100.00;98241.56;10330420;28;20084;-54
2023/06/04 09:45:32;;;;;;;10.40;7.00;;;;;;;15.04;100.00;98240.69;10333105;28;20060;-53
2023/06/04 09:50:38;;;;;;;11.82;8.43;;;;;;;14.75;100.00;98251.44;10332551;28;20076;-54
2023/06/04 09:55:37;;;;;;;13.30;8.20;;;;;;;14.70;100.00;98245.38;10332504;28;20556;-53
2023/06/04 10:00:37;;;;;;;16.98;11.15;;;;;;;14.76;100.00;98248.81;10332878;28;20103;-53
2023/06/04 10:05:36;;;;;;;15.40;8.18;;;;;;;14.78;100.00;98247.06;10333145;28;20071;-53
2023/06/04 10:10:37;;;;;;;11.93;7.82;;;;;;;14.71;100.00;98234.94;10331529;28;20480;-53
2023/06/04 10:15:37;;;;;;;17.90;10.10;;;;;;;14.74;100.00;98245.34;10332114;28;20073;-53
2023/06/04 10:20:36;;;;;;;14.85;9.98;;;;;;;14.51;100.00;98227.25;10332713;28;20068;-53
2023/06/04 10:25:36;;;;;;;13.40;9.02;;;;;;;14.83;100.00;98253.09;10331795;28;20068;-55
2023/06/04 10:30:35;;;;;;;12.55;8.30;;;;;;;14.71;100.00;98234.94;10331825;28;20077;-53
2023/06/04 10:35:35;;;;;;;14.82;9.32;;;;;;;14.86;100.00;98246.13;10330632;28;20041;-52
2023/06/04 10:40:35;;;;;;;15.50;9.75;;;;;;;14.97;100.00;98252.09;10330560;28;20076;-53
2023/06/04 10:45:34;;;;;;;11.38;8.32;;;;;;;14.81;100.00;98215.66;10328625;28;20128;-54
2023/06/04 10:50:35;;;;;;;10.68;7.55;;;;;;;15.12;100.00;98257.16;10326119;28;20124;-54
2023/06/04 10:55:44;;;;;;;11.25;7.70;;;;;;;15.18;100.00;98262.31;10325427;28;20132;-54
2023/06/04 11:00:49;;;;;;;11.55;8.20;;;;;;;15.08;100.00;98255.44;10320915;28;20132;-53
2023/06/04 11:05:50;;;;;;;13.70;7.95;;;;;;;15.18;100.00;98257.09;10323629;28;20069;-54
2023/06/04 11:10:49;;;;;;;16.50;9.80;;;;;;;15.24;100.00;98257.00;10325871;28;20146;-53
2023/06/04 11:15:48;;;;;;;14.35;8.35;;;;;;;15.22;100.00;98266.63;10325926;28;20389;-53
2023/06/04 11:20:49;;;;;;;15.85;8.45;;;;;;;15.39;100.00;98269.03;10316164;28;20132;-54
2023/06/04 11:25:52;;;;;;;13.82;8.60;;;;;;;15.11;100.00;98265.88;10319070;28;20246;-53
2023/06/04 11:30:58;;;;;;;18.30;8.05;;;;;;;15.10;100.00;98269.38;10322277;28;20112;-53
2023/06/04 11:35:57;;;;;;;10.60;7.00;;;;;;;15.11;100.00;98265.88;10323215;28;20113;-53
2023/06/04 11:41:00;;;;;;;10.52;6.60;;;;;;;15.27;100.00;98271.78;10326704;28;20113;-53
2023/06/04 11:45:59;;;;;;;12.00;6.43;;;;;;;15.41;100.00;98280.34;10328106;28;20453;-54
2023/06/04 11:51:04;;;;;;;12.90;7.38;;;;;;;15.48;100.00;98283.75;10327311;28;20076;-53
2023/06/04 11:56:04;;;;;;;9.90;6.85;;;;;;;15.54;100.00;98282.81;10328207;28;20076;-54
2023/06/04 12:01:03;;;;;;;14.23;8.25;;;;;;;15.63;100.00;98278.31;10327505;28;20530;-51
2023/06/04 12:06:16;;;;;;;9.85;6.10;;;;;;;15.58;100.00;98269.69;10327660;28;20068;-52
2023/06/04 12:11:29;;;;;;;10.30;6.00;;;;;;;15.56;100.00;98279.28;10328437;28;20073;-53
2023/06/04 12:16:28;;;;;;;11.30;6.20;;;;;;;15.59;100.00;98274.00;10327941;28;20709;-53
2023/06/04 12:21:27;;;;;;;11.25;7.28;;;;;;;15.58;100.00;98280.16;10328702;28;20723;-52
2023/06/04 12:26:29;;;;;;;11.50;7.13;;;;;;;15.46;100.00;98256.75;10327497;28;20076;-53
2023/06/04 12:31:31;;;;;;;11.20;6.75;;;;;;;15.37;100.00;98280.41;10327821;28;20075;-53
2023/06/04 12:36:33;;;;;;;14.32;7.72;;;;;;;15.57;100.00;98290.63;10328388;28;20144;-50
2023/06/04 12:41:33;;;;;;;10.82;6.68;;;;;;;15.66;100.00;98293.97;10334055;28;20091;-52
2023/06/04 12:46:32;;;;;;;13.23;7.50;;;;;;;15.68;100.00;98296.59;10332616;28;20068;-52
2023/06/04 12:51:31;;;;;;;13.82;8.32;;;;;;;15.63;100.00;98290.56;10332323;28;20116;-52
2023/06/04 12:56:30;;;;;;;13.35;6.82;;;;;;;15.58;100.00;98292.38;10331099;28;20068;-52
2023/06/04 13:01:29;;;;;;;11.13;7.15;;;;;;;15.70;100.00;98289.59;10331660;28;20033;-52
2023/06/04 13:06:28;;;;;;;11.95;6.82;;;;;;;15.83;100.00;98274.59;10331571;28;20385;-53
2023/06/04 13:11:27;;;;;;;15.30;7.78;;;;;;;16.06;100.00;98288.22;10331384;28;20045;-52
2023/06/04 13:16:26;;;;;;;15.57;8.13;;;;;;;16.23;100.00;98292.34;10332657;28;20140;-53
2023/06/04 13:21:25;;;;;;;12.68;7.50;;;;;;;16.26;100.00;98290.56;10327906;28;20491;-50
2023/06/04 13:26:25;;;;;;;15.38;8.00;;;;;;;16.39;100.00;98293.84;10325422;28;20026;-53
2023/06/04 13:31:24;;;;;;;10.82;7.43;;;;;;;15.65;100.00;98166.69;10333017;28;20193;-51
2023/06/04 13:36:23;;;;;;;13.25;7.70;;;;;;;16.31;100.00;98295.72;10332898;28;20033;-53
2023/06/04 13:41:22;;;;;;;11.70;7.68;;;;;;;16.40;100.00;98289.50;10333721;28;20044;-52
2023/06/04 13:46:21;;;;;;;11.05;7.63;;;;;;;16.59;100.00;98284.81;10333151;28;20813;-53
2023/06/04 13:51:20;;;;;;;13.27;6.68;;;;;;;16.61;100.00;98281.28;10331485;28;20045;-52
2023/06/04 13:56:19;;;;;;;14.02;7.05;;;;;;;16.77;100.00;98274.03;10332999;28;20125;-52
2023/06/04 14:01:17;;;;;;;11.52;6.45;;;;;;;16.88;100.00;98282.56;10332937;28;20128;-52
2023/06/04 14:06:16;;;;;;;11.27;6.07;;;;;;;16.82;97.71;98273.97;10331837;28;20035;-53
2023/06/04 14:11:15;;;;;;;12.68;6.20;;;;;;;16.61;95.13;98262.09;10332413;28;20029;-53
2023/06/04 14:16:14;;;;;;;13.68;7.20;;;;;;;16.39;95.12;98249.31;10332413;28;20171;-53
2023/06/04 14:21:13;;;;;;;11.05;6.88;;;;;;;16.48;97.76;98261.41;10331562;28;20080;-53
2023/06/04 14:26:13;;;;;;;11.48;6.88;;;;;;;16.23;96.56;98260.94;10331651;28;20124;-53
2023/06/04 14:31:12;;;;;;;12.02;6.07;;;;;;;16.11;98.54;98264.59;10332099;28;20076;-51
2023/06/04 14:36:11;;;;;;;11.20;7.22;;;;;;;15.65;100.00;98268.72;10330632;28;20148;-53
2023/06/04 14:41:10;;;;;;;11.18;7.97;;;;;;;15.70;100.00;98267.78;10332071;28;20068;-53
2023/06/04 14:46:09;;;;;;;15.13;8.40;;;;;;;15.51;100.00;98269.78;10334304;28;20079;-53
2023/06/04 14:51:09;;;;;;;12.13;6.95;;;;;;;15.30;100.00;98263.06;10332761;28;20046;-53
2023/06/04 14:56:08;;;;;;;14.77;8.90;;;;;;;15.36;100.00;98239.44;10333272;28;20060;-53
2023/06/04 15:01:10;;;;;;;13.50;8.75;;;;;;;15.66;100.00;98239.03;10333171;28;20061;-53
2023/06/04 15:06:09;;;;;;;23.52;12.57;;;;;;;15.73;100.00;98237.19;10330352;28;20066;-53
2023/06/04 15:11:10;;;;;;;17.80;10.73;;;;;;;15.85;100.00;98226.59;10325401;28;20107;-53
2023/06/04 15:16:09;;;;;;;15.00;9.57;;;;;;;15.95;100.00;98219.50;10324264;28;20061;-53
2023/06/04 15:21:08;;;;;;;16.25;8.73;;;;;;;15.95;100.00;98218.59;10327866;28;20096;-50
2023/06/04 15:26:07;;;;;;;13.60;8.57;;;;;;;15.72;100.00;98217.16;10328697;28;20386;-54
2023/06/04 15:31:06;;;;;;;16.40;8.73;;;;;;;15.81;100.00;98227.53;10329525;28;20029;-52
2023/06/04 15:36:05;;;;;;;13.80;8.30;;;;;;;15.86;100.00;98236.19;10328547;28;20120;-51
2023/06/04 15:41:04;;;;;;;12.82;7.80;;;;;;;15.71;100.00;98215.44;10327263;28;20057;-52
2023/06/04 15:46:03;;;;;;;17.13;8.88;;;;;;;15.83;100.00;98227.50;10324602;28;20072;-53
2023/06/04 15:51:02;;;;;;;15.10;9.45;;;;;;;15.89;100.00;98216.94;10292877;28;20053;-50
2023/06/04 15:56:01;;;;;;;17.70;10.27;;;;;;;15.93;100.00;98229.09;10284534;28;20461;-52
2023/06/04 16:01:00;;;;;;;17.58;9.48;;;;;;;15.82;100.00;98223.16;10284166;28;20112;-52
2023/06/04 16:05:59;;;;;;;15.48;9.70;;;;;;;15.67;100.00;98224.22;10285186;28;20405;-52
2023/06/04 16:10:59;;;;;;;15.82;8.77;;;;;;;15.38;100.00;98227.22;10283646;28;20123;-53
2023/06/04 16:15:59;;;;;;;14.43;8.60;;;;;;;15.18;100.00;98220.50;10285845;28;20073;-52
2023/06/04 16:20:59;;;;;;;16.50;10.18;;;;;;;15.22;100.00;98222.19;10284474;28;20152;-52
2023/06/04 16:25:58;;;;;;;19.33;10.27;;;;;;;15.36;100.00;98218.50;10285110;28;20072;-53
2023/06/04 16:30:57;;;;;;;18.25;9.82;;;;;;;15.57;100.00;98218.22;10283992;28;20116;-53
2023/06/04 16:35:56;;;;;;;13.27;8.38;;;;;;;15.71;100.00;98218.03;10281935;28;20452;-51
2023/06/04 16:40:55;;;;;;;17.13;9.18;;;;;;;15.82;100.00;98221.41;10281977;28;20120;-54
2023/06/04 16:45:54;;;;;;;17.83;8.80;;;;;;;15.90;100.00;98216.06;10283028;28;20076;-52
2023/06/04 16:50:55;;;;;;;14.30;8.60;;;;;;;15.90;100.00;98205.56;10283378;28;20037;-53
2023/06/04 16:55:54;;;;;;;15.02;8.55;;;;;;;15.93;100.00;98205.56;10283354;28;20121;-53
2023/06/04 17:00:54;;;;;;;16.88;9.70;;;;;;;15.96;100.00;98204.63;10282678;28;20076;-51
2023/06/04 17:05:53;;;;;;;19.60;10.07;;;;;;;16.02;100.00;98194.94;10284393;28;20084;-52
2023/06/04 17:10:52;;;;;;;25.10;12.18;;;;;;;16.06;100.00;98201.84;10282825;28;20028;-52
2023/06/04 17:15:51;;;;;;;18.33;11.05;;;;;;;16.02;100.00;98202.78;10283931;28;20777;-51
2023/06/04 17:20:50;;;;;;;20.15;12.40;;;;;;;16.02;100.00;98208.03;10282616;28;20493;-53
2023/06/04 17:25:50;;;;;;;20.00;12.77;;;;;;;16.05;100.00;98205.34;10288766;28;20025;-52
2023/06/04 17:30:49;;;;;;;18.70;10.02;;;;;;;15.91;100.00;98204.72;10290436;28;20157;-52
2023/06/04 17:35:48;;;;;;;13.68;8.38;;;;;;;15.83;100.00;98199.59;10290718;28;20122;-52
2023/06/04 17:40:47;;;;;;;16.45;9.63;;;;;;;15.62;100.00;98198.13;10290159;28;20041;-52
2023/06/04 17:45:46;;;;;;;16.98;11.52;;;;;;;15.46;100.00;98194.84;10288743;28;20021;-52
2023/06/04 17:50:45;;;;;;;17.98;10.57;;;;;;;15.46;100.00;98194.00;10288837;28;20044;-53
2023/06/04 17:55:44;;;;;;;17.77;11.07;;;;;;;15.41;100.00;98198.41;10289454;28;20628;-53
2023/06/04 18:00:43;;;;;;;16.83;10.30;;;;;;;15.30;100.00;98202.94;10287631;28;20606;-53
2023/06/04 18:05:42;;;;;;;20.13;12.02;;;;;;;15.22;100.00;98216.97;10288681;28;20129;-52
2023/06/04 18:10:41;;;;;;;16.02;9.52;;;;;;;14.74;100.00;98187.88;10288670;28;20057;-53
2023/06/04 18:15:40;;;;;;;17.33;10.52;;;;;;;14.75;100.00;98226.16;10288100;28;20078;-53
2023/06/04 18:20:40;;;;;;;20.63;11.88;;;;;;;14.87;100.00;98224.31;10285100;28;20026;-54
2023/06/04 18:25:39;;;;;;;22.85;12.38;;;;;;;14.97;100.00;98223.34;10284066;28;20145;-54
2023/06/04 18:30:38;;;;;;;20.73;12.30;;;;;;;15.08;100.00;98225.81;10285775;28;20041;-53
2023/06/04 18:35:37;;;;;;;23.05;14.02;;;;;;;15.08;100.00;98218.00;10282170;28;20030;-52
2023/06/04 18:40:36;;;;;;;;;;;;;;;15.19;100.00;98226.56;10283732;28;20021;-53
2023/06/04 18:45:35;;;;;;;24.73;13.37;;;;;;;15.21;100.00;98225.66;10285587;28;19921;-53
2023/06/04 18:50:34;;;;;;;30.52;14.95;;;;;;;15.28;100.00;98223.00;10285428;28;20116;-53
2023/06/04 18:55:33;;;;;;;25.58;16.35;;;;;;;15.35;100.00;98222.03;10290015;28;20143;-53
2023/06/04 19:00:33;;;;;;;31.75;16.95;;;;;;;15.40;100.00;98226.31;10327450;28;20025;-53
2023/06/04 19:05:32;;;;;;;25.52;15.68;;;;;;;15.44;100.00;98232.38;10326888;28;20057;-52
2023/06/04 19:10:30;;;;;;;27.20;15.07;;;;;;;15.51;100.00;98222.69;10325904;28;20026;-53
2023/06/04 19:15:30;;;;;;;;;;;;;;;15.56;100.00;98216.50;10326188;28;20030;-54
2023/06/04 19:20:28;;;;;;;22.67;12.80;;;;;;;15.62;100.00;98221.66;10324320;28;19983;-53
2023/06/04 19:25:27;;;;;;;23.92;13.27;;;;;;;15.40;100.00;98175.75;10326348;28;20025;-50
2023/06/04 19:30:26;;;;;;;25.20;14.27;;;;;;;15.57;100.00;98207.75;10326107;28;20474;-53
2023/06/04 19:35:26;;;;;;;25.27;13.57;;;;;;;15.54;100.00;98218.28;10326137;28;20547;-52
2023/06/04 19:40:25;;;;;;;23.88;14.77;;;;;;;15.42;100.00;98203.63;10326247;28;20068;-52
2023/06/04 19:45:24;;;;;;;28.75;15.23;;;;;;;15.19;100.00;98158.59;10329128;28;20049;-50
2023/06/04 19:50:24;;;;;;;28.20;14.85;;;;;;;15.33;100.00;98188.03;10328623;28;20080;-50
2023/06/04 19:55:23;;;;;;;22.10;14.55;;;;;;;15.34;100.00;98196.75;10329610;28;20073;-52
2023/06/04 20:00:22;;;;;;;27.38;15.27;;;;;;;15.33;100.00;98195.88;10328194;28;20119;-52
2023/06/04 20:05:21;;;;;;;24.33;15.02;;;;;;;15.20;100.00;98197.81;10328878;28;20021;-49
2023/06/04 20:10:21;;;;;;;26.60;15.20;;;;;;;15.05;100.00;98197.97;10327763;28;20067;-52
2023/06/04 20:15:20;;;;;;;25.17;15.23;;;;;;;15.12;100.00;98193.56;10327930;28;20065;-53
2023/06/04 20:20:19;;;;;;;23.13;15.68;;;;;;;15.16;100.00;98196.13;10328454;28;20477;-50
2023/06/04 20:25:18;;;;;;;25.90;14.10;;;;;;;15.09;100.00;98194.47;10328759;28;20072;-53
2023/06/04 20:30:17;;;;;;;24.10;13.60;;;;;;;15.05;100.00;98192.75;10327723;28;20040;-51
2023/06/04 20:35:16;;;;;;;;;;;;;;;15.18;100.00;98196.09;10328066;28;20477;-53
2023/06/04 20:40:15;;;;;;;24.30;14.87;;;;;;;15.33;100.00;98197.66;10326870;28;19921;-52
2023/06/04 20:45:14;;;;;;;23.38;15.20;;;;;;;15.42;100.00;98205.38;10324470;28;20107;-51
2023/06/04 20:50:13;;;;;;;27.08;15.00;;;;;;;15.49;100.00;98196.56;10323440;28;20077;-51
2023/06/04 20:55:13;;;;;;;28.13;14.40;;;;;;;15.48;100.00;98191.34;10323580;28;20037;-52
2023/06/04 21:00:12;;;;;;;24.75;15.35;;;;;;;15.33;100.00;98192.41;10327984;28;20176;-52
2023/06/04 21:05:11;;;;;;;31.48;17.35;;;;;;;15.37;100.00;98210.66;10331472;28;20128;-52
2023/06/04 21:10:10;;;;;;;40.63;17.05;;;;;;;15.38;100.00;98207.16;10331741;28;20036;-52
2023/06/04 21:15:09;;;;;;;27.15;16.73;;;;;;;15.45;100.00;98198.34;10331175;28;20039;-51
2023/06/04 21:20:09;;;;;;;25.83;14.27;;;;;;;15.52;100.00;98204.34;10331358;28;20503;-51
2023/06/04 21:25:08;;;;;;;28.40;13.82;;;;;;;15.57;100.00;98210.38;10331774;28;20108;-52
2023/06/04 21:30:08;;;;;;;22.05;13.68;;;;;;;15.61;100.00;98199.00;10330859;28;20045;-53
2023/06/04 21:35:07;;;;;;;25.10;13.20;;;;;;;15.63;100.00;98207.69;10330120;28;20500;-53
2023/06/04 21:40:06;;;;;;;25.55;13.18;;;;;;;15.65;100.00;98208.53;10330070;28;20129;-52
2023/06/04 21:45:06;;;;;;;20.83;11.85;;;;;;;15.59;100.00;98202.53;10328133;28;20104;-53
2023/06/04 21:50:05;;;;;;;25.52;11.82;;;;;;;15.70;100.00;98212.84;10329172;28;20124;-53
2023/06/04 21:55:05;;;;;;;21.98;11.23;;;;;;;15.62;100.00;98208.59;10329879;28;20590;-53
2023/06/04 22:00:05;;;;;;;21.40;11.52;;;;;;;15.62;100.00;98220.78;10330296;28;21135;-53
2023/06/04 22:05:05;;;;;;;20.77;11.30;;;;;;;15.68;100.00;98223.31;10328562;28;20536;-53
2023/06/04 22:10:05;;;;;;;21.77;11.85;;;;;;;15.63;100.00;98204.22;10328868;28;20168;-53
2023/06/04 22:15:05;;;;;;;22.42;10.75;;;;;;;15.74;100.00;98219.75;10329390;28;20084;-54
2023/06/04 22:20:04;;;;;;;15.80;10.23;;;;;;;15.76;100.00;98217.97;10325754;28;20125;-51
2023/06/04 22:25:04;;;;;;;14.77;9.30;;;;;;;15.79;100.00;98207.53;10325712;28;20056;-53
2023/06/04 22:30:03;;;;;;;14.38;8.38;;;;;;;15.77;100.00;98210.13;10326374;28;20121;-51
2023/06/04 22:35:02;;;;;;;13.65;8.10;;;;;;;15.71;100.00;98198.88;10327786;28;20079;-50
2023/06/04 22:40:02;;;;;;;13.10;7.32;;;;;;;15.63;100.00;98199.84;10328251;28;20072;-49